Matecumbe Key, Florida
Current Conditions -  °F | °C
As of 5:53 AM on Friday 19 Dec 2014 (Local Time) from KMTH Reporting Station
Clear Clear  
Wind Chill: 65°   Ceiling: Unl
Heat Index: 65°   Visibility: 10mi
Dew Point: 63°   Wind: 7mph
Humidity: 93%   Direction: 40°NE
Pressure: 30.05"   Gusts: NA
Location:  24.8649°N, 80.7192°W
Report Text: KMTH 191053Z AUTO 04006KT 10SM CLR 18/17 A3005 RMK AO2 SLP176 T01830172
Loading
Personal Weather Stations






























Interactive Weather Map New forecast layout! Learn more

10-Day Weather Forecast

Advertisements
Track Severe Weather on mobile